createdAt,value
2023-03-31T00:01:04.765Z,9.82
2023-03-31T00:03:34.263Z,9.95
2023-03-31T00:06:04.101Z,9.89
2023-03-31T00:08:36.743Z,9.95
2023-03-31T00:11:07.482Z,10.12
2023-03-31T00:13:37.119Z,9.68
2023-03-31T00:16:08.087Z,9.37
2023-03-31T00:18:37.275Z,9.18
2023-03-31T00:21:14.821Z,9.23
2023-03-31T00:23:44.680Z,9.71
2023-03-31T00:26:12.966Z,9.84
2023-03-31T00:28:41.270Z,9.75
2023-03-31T00:31:09.527Z,9.25
2023-03-31T00:33:37.878Z,9.49
2023-03-31T00:36:06.933Z,9.59
2023-03-31T00:38:36.187Z,9.40
2023-03-31T00:41:06.713Z,9.15
2023-03-31T00:43:37.067Z,8.98
2023-03-31T00:46:15.707Z,9.06
2023-03-31T00:48:49.254Z,9.38
2023-03-31T00:51:17.611Z,9.48
2023-03-31T00:53:52.044Z,9.65
2023-03-31T00:56:22.341Z,9.52
2023-03-31T00:58:50.883Z,9.17
2023-03-31T01:01:24.882Z,8.92
2023-03-31T01:03:53.956Z,9.02
2023-03-31T01:06:23.978Z,9.15
2023-03-31T01:08:53.413Z,9.02
2023-03-31T01:11:27.609Z,9.38
2023-03-31T01:13:58.189Z,9.48
2023-03-31T01:16:26.494Z,9.47
2023-03-31T01:18:57.717Z,9.40
2023-03-31T01:22:02.802Z,9.28
2023-03-31T01:25:07.031Z,9.27
2023-03-31T01:27:59.492Z,9.40
2023-03-31T01:30:56.677Z,9.47
2023-03-31T01:33:52.540Z,8.81
2023-03-31T01:37:06.501Z,8.71
2023-03-31T01:40:08.533Z,8.22
2023-03-31T01:42:40.639Z,8.58
2023-03-31T01:45:21.330Z,7.39
2023-03-31T01:47:58.236Z,8.68
2023-03-31T01:50:32.169Z,8.30
2023-03-31T01:53:06.928Z,8.16
2023-03-31T01:55:38.464Z,8.55
2023-03-31T01:58:12.879Z,8.77
2023-03-31T02:00:46.941Z,8.62
2023-03-31T02:03:19.510Z,8.73
2023-03-31T02:05:53.835Z,8.82
2023-03-31T02:08:26.252Z,8.92
2023-03-31T02:10:57.285Z,8.98
2023-03-31T02:13:29.145Z,8.98
2023-03-31T02:16:02.686Z,9.10
2023-03-31T02:18:33.481Z,9.15
2023-03-31T02:21:02.437Z,8.68
2023-03-31T02:23:32.936Z,8.85
2023-03-31T02:26:05.814Z,8.56
2023-03-31T02:28:34.916Z,9.11
2023-03-31T02:31:15.014Z,8.96
2023-03-31T02:33:43.498Z,9.31
2023-03-31T02:36:12.205Z,8.97
2023-03-31T02:38:46.497Z,9.11
2023-03-31T02:41:16.293Z,8.95
2023-03-31T02:43:44.579Z,9.27
2023-03-31T02:46:12.947Z,9.33
2023-03-31T02:48:44.654Z,9.40
2023-03-31T02:51:46.106Z,9.23
2023-03-31T02:54:56.325Z,9.44
2023-03-31T02:57:58.231Z,9.25
2023-03-31T03:00:38.389Z,9.51
2023-03-31T03:03:21.066Z,9.48
2023-03-31T03:06:00.778Z,9.44
2023-03-31T03:08:42.510Z,9.01
2023-03-31T03:11:21.984Z,8.84
2023-03-31T03:13:54.058Z,8.85
2023-03-31T03:16:27.517Z,8.97
2023-03-31T03:18:59.670Z,8.84
2023-03-31T03:21:28.171Z,9.02
2023-03-31T03:23:56.654Z,9.13
2023-03-31T03:26:28.235Z,9.75
2023-03-31T03:28:58.556Z,9.73
2023-03-31T03:31:26.911Z,9.47
2023-03-31T03:33:56.042Z,9.74
2023-03-31T03:36:24.435Z,9.65
2023-03-31T03:38:52.746Z,9.72
2023-03-31T03:41:20.995Z,9.77
2023-03-31T03:43:49.277Z,9.86
2023-03-31T03:46:19.042Z,9.33
2023-03-31T03:48:47.374Z,9.26
2023-03-31T03:51:15.822Z,9.47
2023-03-31T03:53:44.222Z,9.69
2023-03-31T03:56:12.579Z,9.71
2023-03-31T03:58:41.016Z,9.41
2023-03-31T04:01:09.437Z,9.46
2023-03-31T04:03:39.321Z,9.39
2023-03-31T04:06:08.417Z,9.55
2023-03-31T04:08:37.107Z,9.21
2023-03-31T04:11:12.874Z,9.41
2023-03-31T04:13:41.290Z,8.94
2023-03-31T04:16:09.926Z,8.47
2023-03-31T04:18:43.897Z,8.42
2023-03-31T04:21:15.607Z,8.88
2023-03-31T04:23:46.972Z,8.62
2023-03-31T04:26:16.723Z,8.35
2023-03-31T04:28:47.027Z,8.91
2023-03-31T04:31:25.678Z,9.19
2023-03-31T04:33:55.889Z,9.40
2023-03-31T04:36:24.260Z,9.67
2023-03-31T04:38:55.070Z,8.10
2023-03-31T04:41:23.937Z,7.61
2023-03-31T04:43:52.770Z,7.38
2023-03-31T04:46:21.518Z,7.34
2023-03-31T04:48:49.886Z,7.80
2023-03-31T04:51:20.468Z,7.95
2023-03-31T04:53:48.879Z,8.01
2023-03-31T04:56:17.091Z,8.01
2023-03-31T04:58:45.651Z,8.30
2023-03-31T05:01:18.497Z,8.38
2023-03-31T05:03:48.222Z,8.57
2023-03-31T05:06:16.982Z,8.42
2023-03-31T05:08:46.769Z,8.05
2023-03-31T05:11:15.289Z,8.50
2023-03-31T05:13:43.613Z,8.82
2023-03-31T05:16:14.649Z,8.89
2023-03-31T05:18:43.428Z,8.82
2023-03-31T05:21:14.438Z,8.26
2023-03-31T05:23:43.801Z,8.98
2023-03-31T05:26:14.322Z,8.82
2023-03-31T05:28:43.420Z,9.18
2023-03-31T05:31:13.229Z,9.40
2023-03-31T05:33:42.387Z,9.52
2023-03-31T05:36:12.685Z,9.57
2023-03-31T05:38:41.457Z,9.51
2023-03-31T05:41:11.264Z,9.72
2023-03-31T05:43:41.325Z,10.02
2023-03-31T05:46:10.055Z,9.68
2023-03-31T05:48:38.760Z,9.56
2023-03-31T05:51:07.469Z,9.98
2023-03-31T05:53:36.274Z,9.98
2023-03-31T05:56:07.251Z,10.27
2023-03-31T05:58:36.717Z,10.43
2023-03-31T06:01:09.645Z,10.63
2023-03-31T06:03:41.303Z,11.39
2023-03-31T06:06:10.717Z,11.10
2023-03-31T06:08:39.415Z,11.90
2023-03-31T06:11:09.163Z,11.88
2023-03-31T06:13:37.923Z,12.57
2023-03-31T06:16:08.463Z,12.20
2023-03-31T06:18:37.499Z,12.43
2023-03-31T06:21:06.669Z,13.04
2023-03-31T06:23:35.779Z,13.41
2023-03-31T06:26:07.269Z,13.97
2023-03-31T06:28:36.209Z,14.33
2023-03-31T06:31:06.447Z,14.66
2023-03-31T06:33:37.150Z,14.72
2023-03-31T06:36:06.984Z,15.10
2023-03-31T06:38:36.434Z,14.52
2023-03-31T06:41:04.904Z,15.41
2023-03-31T06:43:33.976Z,15.44
2023-03-31T06:46:02.735Z,15.75
2023-03-31T06:48:31.109Z,16.93
2023-03-31T06:51:03.547Z,17.36
2023-03-31T06:53:32.254Z,16.64
2023-03-31T06:56:01.143Z,17.01
2023-03-31T06:58:31.354Z,17.25
2023-03-31T07:01:00.658Z,16.61
2023-03-31T07:03:29.602Z,16.91
2023-03-31T07:05:58.058Z,16.43
2023-03-31T07:08:27.789Z,17.35
2023-03-31T07:10:58.085Z,17.12
2023-03-31T07:13:27.322Z,16.94
2023-03-31T07:15:55.978Z,16.71
2023-03-31T07:18:26.296Z,16.50
2023-03-31T07:20:54.848Z,16.56
2023-03-31T07:23:23.108Z,17.58
2023-03-31T07:25:52.911Z,18.06
2023-03-31T07:28:21.193Z,17.42
2023-03-31T07:30:49.442Z,17.78
2023-03-31T07:33:17.786Z,17.29
2023-03-31T07:38:15.509Z,19.57
2023-03-31T07:40:49.070Z,19.63
2023-03-31T07:43:25.495Z,19.71
2023-03-31T07:45:53.968Z,19.45
2023-03-31T07:48:22.533Z,19.57
2023-03-31T07:50:51.710Z,20.25
2023-03-31T07:53:20.068Z,19.87
2023-03-31T07:55:48.817Z,20.23
2023-03-31T07:58:17.165Z,20.53
2023-03-31T08:00:46.930Z,20.72
2023-03-31T08:03:15.321Z,21.19
2023-03-31T08:05:45.952Z,20.87
2023-03-31T08:08:14.412Z,21.75
2023-03-31T08:10:42.674Z,20.23
2023-03-31T08:13:10.995Z,20.12
2023-03-31T08:15:39.339Z,19.54
2023-03-31T08:18:09.917Z,19.88
2023-03-31T08:20:39.489Z,20.74
2023-03-31T08:23:11.597Z,21.47
2023-03-31T08:25:40.051Z,21.01
2023-03-31T08:28:10.971Z,22.32
2023-03-31T08:30:39.744Z,21.86
2023-03-31T08:33:12.242Z,22.22
2023-03-31T08:35:40.710Z,22.80
2023-03-31T08:38:09.257Z,22.53
2023-03-31T08:40:41.445Z,23.11
2023-03-31T08:43:14.327Z,23.98
2023-03-31T08:45:47.149Z,24.46
2023-03-31T08:48:26.122Z,25.09
2023-03-31T08:50:58.803Z,23.72
2023-03-31T08:53:30.406Z,23.23
2023-03-31T08:56:00.233Z,23.62
2023-03-31T08:58:39.568Z,23.17
2023-03-31T09:01:18.428Z,23.84
2023-03-31T09:04:06.210Z,23.81
2023-03-31T09:06:39.409Z,24.13
2023-03-31T09:09:12.818Z,24.93
2023-03-31T09:11:47.596Z,24.50
2023-03-31T09:14:22.876Z,24.77
2023-03-31T09:17:01.141Z,25.72
2023-03-31T09:19:37.896Z,24.95
2023-03-31T09:22:12.734Z,24.77
2023-03-31T09:24:49.039Z,23.80
2023-03-31T09:27:17.733Z,24.29
2023-03-31T09:29:51.466Z,25.18
2023-03-31T09:32:22.190Z,26.47
2023-03-31T09:34:57.420Z,25.11
2023-03-31T09:37:28.728Z,24.61
2023-03-31T09:39:57.644Z,23.59
2023-03-31T09:42:26.033Z,25.49
2023-03-31T09:44:55.252Z,26.70
2023-03-31T09:47:30.900Z,25.85
2023-03-31T09:50:00.800Z,26.61
2023-03-31T09:52:32.227Z,26.91
2023-03-31T09:55:02.698Z,25.99
2023-03-31T09:57:34.121Z,26.75
2023-03-31T10:00:16.844Z,27.13
2023-03-31T10:02:50.052Z,27.71
2023-03-31T10:05:29.581Z,28.79
2023-03-31T10:08:23.848Z,29.79
2023-03-31T10:10:55.530Z,26.97
2023-03-31T10:13:26.723Z,27.00
2023-03-31T10:15:57.451Z,27.02
2023-03-31T10:18:35.518Z,25.75
2023-03-31T10:21:07.512Z,25.49
2023-03-31T10:23:37.149Z,25.49
2023-03-31T10:26:06.928Z,26.64
2023-03-31T10:28:37.436Z,26.50
2023-03-31T10:31:06.783Z,27.53
2023-03-31T10:33:42.030Z,26.40
2023-03-31T10:36:18.961Z,25.05
2023-03-31T10:38:50.080Z,23.96
2023-03-31T10:41:21.236Z,23.43
2023-03-31T10:43:52.669Z,24.00
2023-03-31T10:46:22.886Z,25.53
2023-03-31T10:48:52.876Z,25.70
2023-03-31T10:51:27.825Z,27.51
2023-03-31T10:54:03.494Z,26.39
2023-03-31T10:56:39.840Z,27.27
2023-03-31T10:59:25.868Z,27.79
2023-03-31T11:02:08.023Z,27.83
2023-03-31T11:04:47.574Z,27.95
2023-03-31T11:07:37.316Z,28.89
2023-03-31T11:10:23.451Z,28.28
2023-03-31T11:12:59.043Z,29.52
2023-03-31T11:15:35.858Z,30.11
2023-03-31T11:18:17.822Z,29.65
2023-03-31T11:20:57.815Z,29.09
2023-03-31T11:23:41.959Z,29.23
2023-03-31T11:26:14.610Z,27.71
2023-03-31T11:29:01.920Z,28.36
2023-03-31T11:31:47.920Z,29.19
2023-03-31T11:34:34.262Z,29.74
2023-03-31T11:37:23.102Z,30.76
2023-03-31T11:40:23.686Z,29.62
2023-03-31T11:42:58.022Z,29.72
2023-03-31T11:45:31.463Z,30.66
2023-03-31T11:48:07.458Z,30.13
2023-03-31T11:50:43.460Z,29.29
2023-03-31T11:53:17.899Z,29.42
2023-03-31T11:55:50.280Z,29.78
2023-03-31T11:58:23.920Z,30.40
2023-03-31T12:00:58.766Z,27.62
2023-03-31T12:03:38.438Z,29.08
2023-03-31T12:06:17.593Z,29.26
2023-03-31T12:08:53.073Z,29.09
2023-03-31T12:11:29.031Z,28.69
2023-03-31T12:14:03.275Z,28.32
2023-03-31T12:16:39.633Z,28.82
2023-03-31T12:19:14.896Z,27.63
2023-03-31T12:21:49.426Z,28.03
2023-03-31T12:24:17.866Z,26.96
2023-03-31T12:26:59.200Z,26.04
2023-03-31T12:29:32.665Z,23.54
2023-03-31T12:32:05.085Z,23.90
2023-03-31T12:34:34.891Z,24.98
2023-03-31T12:37:40.200Z,23.98
2023-03-31T12:40:19.629Z,23.46
2023-03-31T12:43:17.792Z,23.95
2023-03-31T12:45:51.619Z,23.17
2023-03-31T12:48:45.674Z,23.36
2023-03-31T12:51:26.043Z,23.17
2023-03-31T12:54:09.926Z,23.72
2023-03-31T12:57:05.361Z,22.84
2023-03-31T12:59:37.070Z,23.03
2023-03-31T13:02:27.062Z,22.93
2023-03-31T13:04:55.498Z,22.58
2023-03-31T13:07:43.398Z,22.34
2023-03-31T13:10:59.778Z,22.70
2023-03-31T13:13:28.445Z,22.10
2023-03-31T13:16:00.812Z,21.91
2023-03-31T13:18:35.810Z,22.52
2023-03-31T13:21:08.022Z,22.86
2023-03-31T13:23:37.917Z,22.52
2023-03-31T13:26:07.062Z,23.17
2023-03-31T13:28:40.270Z,23.87
2023-03-31T13:31:11.616Z,23.38
2023-03-31T13:33:52.113Z,23.78
2023-03-31T13:36:52.947Z,24.47
2023-03-31T13:39:53.653Z,24.85
2023-03-31T13:42:47.825Z,24.79
2023-03-31T13:45:29.527Z,24.54
2023-03-31T13:48:15.272Z,24.17
2023-03-31T13:50:54.834Z,24.07
2023-03-31T13:53:39.601Z,24.11
2023-03-31T13:56:25.676Z,23.51
2023-03-31T13:59:26.027Z,24.22
2023-03-31T14:02:17.689Z,24.69
2023-03-31T14:05:06.665Z,24.96
2023-03-31T14:07:42.994Z,25.01
2023-03-31T14:10:24.462Z,24.52
2023-03-31T14:12:53.477Z,24.48
2023-03-31T14:15:22.515Z,25.24
2023-03-31T14:17:51.056Z,24.40
2023-03-31T14:20:36.454Z,23.81
2023-03-31T14:23:18.186Z,23.55
2023-03-31T14:25:54.663Z,22.90
2023-03-31T14:28:37.920Z,23.12
2023-03-31T14:31:20.648Z,22.86
2023-03-31T14:34:04.687Z,22.31
2023-03-31T14:36:41.911Z,22.29
2023-03-31T14:39:13.392Z,21.82
2023-03-31T14:41:44.860Z,21.82
2023-03-31T14:44:17.115Z,22.80
2023-03-31T14:46:45.612Z,22.93
2023-03-31T14:49:22.082Z,22.60
2023-03-31T14:51:54.322Z,22.79
2023-03-31T14:54:23.152Z,23.09
2023-03-31T14:56:55.180Z,23.31
2023-03-31T14:59:27.767Z,23.43
2023-03-31T15:01:59.727Z,23.72
2023-03-31T15:04:41.497Z,23.48
2023-03-31T15:07:13.084Z,22.43
2023-03-31T15:09:43.743Z,22.52
2023-03-31T15:12:16.229Z,22.26
2023-03-31T15:14:48.048Z,22.25
2023-03-31T15:17:21.560Z,22.31
2023-03-31T15:19:55.093Z,22.36
2023-03-31T15:22:26.399Z,22.52
2023-03-31T15:24:55.094Z,22.65
2023-03-31T15:30:25.349Z,22.35
2023-03-31T15:33:01.440Z,22.12
2023-03-31T15:35:37.826Z,22.07
2023-03-31T15:38:08.150Z,21.91
2023-03-31T15:40:41.078Z,22.02
2023-03-31T15:43:25.601Z,21.88
2023-03-31T15:45:55.654Z,22.05
2023-03-31T15:48:28.627Z,21.28
2023-03-31T15:51:01.529Z,21.23
2023-03-31T15:53:36.987Z,21.26
2023-03-31T15:56:07.617Z,21.21
2023-03-31T15:58:57.376Z,20.75
2023-03-31T16:01:33.061Z,20.43
2023-03-31T16:04:02.967Z,19.97
2023-03-31T16:06:43.495Z,19.72
2023-03-31T16:09:17.980Z,20.00
2023-03-31T16:11:50.822Z,20.18
2023-03-31T16:14:22.926Z,19.98
2023-03-31T16:16:54.621Z,19.89
2023-03-31T16:19:28.649Z,20.06
2023-03-31T16:22:02.215Z,19.38
2023-03-31T16:24:34.895Z,19.52
2023-03-31T16:27:06.632Z,19.23
2023-03-31T16:29:37.190Z,19.69
2023-03-31T16:32:11.675Z,19.48
2023-03-31T16:34:54.119Z,19.27
2023-03-31T16:37:22.394Z,19.56
2023-03-31T16:39:52.329Z,19.26
2023-03-31T16:42:21.225Z,18.31
2023-03-31T16:44:59.842Z,18.66
2023-03-31T16:47:36.197Z,18.93
2023-03-31T16:50:07.801Z,18.76
2023-03-31T16:52:37.256Z,18.91
2023-03-31T16:55:09.394Z,18.82
2023-03-31T16:57:37.753Z,18.72
2023-03-31T17:00:07.063Z,18.45
2023-03-31T17:02:35.456Z,18.63
2023-03-31T17:05:12.635Z,18.46
2023-03-31T17:07:41.745Z,18.32
2023-03-31T17:10:13.016Z,18.26
2023-03-31T17:12:41.479Z,18.35
2023-03-31T17:15:11.181Z,18.35
2023-03-31T17:17:39.665Z,18.17
2023-03-31T17:20:09.350Z,18.22
2023-03-31T17:22:40.814Z,18.26
2023-03-31T17:25:11.610Z,18.32
2023-03-31T17:27:40.079Z,18.44
2023-03-31T17:30:10.007Z,18.22
2023-03-31T17:32:38.532Z,18.47
2023-03-31T17:35:07.963Z,18.29
2023-03-31T17:37:39.568Z,18.12
2023-03-31T17:40:09.929Z,18.04
2023-03-31T17:42:39.691Z,18.08
2023-03-31T17:45:09.699Z,18.08
2023-03-31T17:47:38.021Z,17.77
2023-03-31T17:50:08.828Z,17.58
2023-03-31T17:52:37.434Z,17.89
2023-03-31T17:55:06.490Z,17.77
2023-03-31T17:57:36.842Z,18.14
2023-03-31T18:00:09.060Z,17.90
2023-03-31T18:02:37.613Z,17.53
2023-03-31T18:05:08.530Z,16.97
2023-03-31T18:07:37.908Z,17.02
2023-03-31T18:10:07.335Z,16.75
2023-03-31T18:12:37.170Z,17.06
2023-03-31T18:15:10.564Z,16.90
2023-03-31T18:17:38.966Z,17.13
2023-03-31T18:20:08.287Z,16.99
2023-03-31T18:22:37.178Z,16.99
2023-03-31T18:25:06.027Z,16.72
2023-03-31T18:27:34.265Z,16.62
2023-03-31T18:30:02.523Z,16.69
2023-03-31T18:32:33.033Z,16.55
2023-03-31T18:35:01.339Z,16.78
2023-03-31T18:37:29.848Z,16.68
2023-03-31T18:39:58.155Z,16.88
2023-03-31T18:42:26.584Z,16.88
2023-03-31T18:44:54.871Z,16.13
2023-03-31T18:47:23.365Z,16.11
2023-03-31T18:49:55.781Z,15.87
2023-03-31T18:52:24.159Z,15.66
2023-03-31T18:54:53.142Z,15.61
2023-03-31T18:57:21.817Z,15.16
2023-03-31T18:59:50.267Z,15.30
2023-03-31T19:02:18.711Z,15.57
2023-03-31T19:04:48.180Z,15.57
2023-03-31T19:07:18.132Z,15.60
2023-03-31T19:09:46.688Z,15.60
2023-03-31T19:12:15.399Z,15.34
2023-03-31T19:14:44.136Z,15.98
2023-03-31T19:17:13.104Z,15.58
2023-03-31T19:19:41.648Z,15.72
2023-03-31T19:22:10.075Z,15.82
2023-03-31T19:24:40.158Z,15.90
2023-03-31T19:27:08.493Z,15.92
2023-03-31T19:29:36.832Z,16.00
2023-03-31T19:32:06.298Z,15.94
2023-03-31T19:34:35.007Z,15.83
2023-03-31T19:37:04.342Z,15.85
2023-03-31T19:39:32.812Z,15.59
2023-03-31T19:42:03.472Z,15.51
2023-03-31T19:44:32.030Z,14.73
2023-03-31T19:47:00.485Z,14.73
2023-03-31T19:49:28.888Z,14.53
2023-03-31T19:51:57.300Z,14.69
2023-03-31T19:54:25.983Z,14.32
2023-03-31T19:56:54.224Z,14.47
2023-03-31T19:59:24.316Z,14.61
2023-03-31T20:01:52.790Z,14.57
2023-03-31T20:07:07.694Z,14.95
2023-03-31T20:09:36.457Z,14.47
2023-03-31T20:12:05.146Z,14.19
2023-03-31T20:14:35.317Z,14.02
2023-03-31T20:17:04.958Z,13.43
2023-03-31T20:19:33.233Z,13.80
2023-03-31T20:22:02.223Z,13.52
2023-03-31T20:24:30.714Z,13.86
2023-03-31T20:26:59.359Z,14.22
2023-03-31T20:29:27.627Z,13.64
2023-03-31T20:31:57.716Z,13.55
2023-03-31T20:34:27.740Z,13.62
2023-03-31T20:36:56.537Z,14.04
2023-03-31T20:39:24.894Z,14.28
2023-03-31T20:41:54.975Z,14.36
2023-03-31T20:44:23.327Z,14.35
2023-03-31T20:46:52.542Z,14.23
2023-03-31T20:49:22.348Z,14.19
2023-03-31T20:51:51.080Z,14.22
2023-03-31T20:54:19.387Z,14.19
2023-03-31T20:56:47.789Z,13.84
2023-03-31T20:59:16.796Z,13.80
2023-03-31T21:01:47.378Z,13.60
2023-03-31T21:04:17.111Z,13.69
2023-03-31T21:06:48.699Z,12.79
2023-03-31T21:09:17.874Z,13.68
2023-03-31T21:11:46.225Z,14.05
2023-03-31T21:14:16.108Z,14.06
2023-03-31T21:16:45.061Z,14.10
2023-03-31T21:19:13.845Z,13.70
2023-03-31T21:21:43.302Z,13.20
2023-03-31T21:24:14.689Z,13.50
2023-03-31T21:26:43.020Z,13.50
2023-03-31T21:29:11.317Z,12.99
2023-03-31T21:31:41.671Z,12.95
2023-03-31T21:34:11.095Z,12.74
2023-03-31T21:36:39.419Z,13.34
2023-03-31T21:39:08.084Z,13.53
2023-03-31T21:41:39.980Z,13.70
2023-03-31T21:44:09.085Z,13.72
2023-03-31T21:46:37.638Z,13.63
2023-03-31T21:49:06.462Z,13.65
2023-03-31T21:51:34.776Z,13.19
2023-03-31T21:54:03.097Z,12.47
2023-03-31T21:56:32.137Z,13.52
2023-03-31T21:59:02.511Z,12.96
2023-03-31T22:01:30.851Z,13.20
2023-03-31T22:04:00.476Z,13.32
2023-03-31T22:06:28.986Z,12.89
2023-03-31T22:08:57.228Z,12.99
2023-03-31T22:11:25.502Z,13.08
2023-03-31T22:13:53.926Z,12.86
2023-03-31T22:16:24.125Z,12.80
2023-03-31T22:18:53.014Z,13.10
2023-03-31T22:21:23.622Z,13.09
2023-03-31T22:23:53.315Z,12.86
2023-03-31T22:26:21.868Z,12.54
2023-03-31T22:28:50.648Z,11.43
2023-03-31T22:31:19.095Z,12.53
2023-03-31T22:33:49.097Z,12.58
2023-03-31T22:36:17.691Z,12.82
2023-03-31T22:38:46.045Z,12.62
2023-03-31T22:41:14.322Z,12.52
2023-03-31T22:43:45.345Z,12.56
2023-03-31T22:46:15.063Z,12.66
2023-03-31T22:48:44.221Z,12.20
2023-03-31T22:51:14.622Z,12.58
2023-03-31T22:53:43.001Z,12.82
2023-03-31T22:56:13.208Z,12.85
2023-03-31T22:58:41.407Z,12.86
2023-03-31T23:01:14.832Z,12.81
2023-03-31T23:03:43.262Z,12.72
2023-03-31T23:06:13.738Z,12.72
2023-03-31T23:08:42.424Z,12.76
2023-03-31T23:11:12.991Z,12.75
2023-03-31T23:13:41.296Z,12.47
2023-03-31T23:16:11.702Z,12.53
2023-03-31T23:18:44.510Z,12.40
2023-03-31T23:21:14.745Z,12.57
2023-03-31T23:23:43.299Z,12.55
2023-03-31T23:26:12.506Z,12.45
2023-03-31T23:28:40.894Z,12.65
2023-03-31T23:31:09.370Z,12.70
2023-03-31T23:33:37.546Z,12.67
2023-03-31T23:36:08.435Z,12.64
2023-03-31T23:38:38.103Z,12.67
2023-03-31T23:41:06.887Z,12.57
2023-03-31T23:43:35.255Z,12.38
2023-03-31T23:46:04.919Z,12.40
2023-03-31T23:48:33.470Z,12.44
2023-03-31T23:51:01.922Z,12.18
2023-03-31T23:53:30.704Z,11.53
2023-03-31T23:56:02.862Z,12.08
2023-03-31T23:58:32.848Z,12.29
